sensor_id;sensor_type;location;lat;lon;timestamp;temperature;humidity
74101;DHT22;62462;52.530;21.682;2023-04-22T00:01:31;10.60;53.80
74101;DHT22;62462;52.530;21.682;2023-04-22T00:03:57;10.50;54.30
74101;DHT22;62462;52.530;21.682;2023-04-22T00:06:23;10.50;54.10
74101;DHT22;62462;52.530;21.682;2023-04-22T00:08:49;10.60;53.70
74101;DHT22;62462;52.530;21.682;2023-04-22T00:11:14;10.50;53.50
74101;DHT22;62462;52.530;21.682;2023-04-22T00:13:40;10.50;53.80
74101;DHT22;62462;52.530;21.682;2023-04-22T00:16:06;10.50;53.60
74101;DHT22;62462;52.530;21.682;2023-04-22T00:18:35;10.50;53.50
74101;DHT22;62462;52.530;21.682;2023-04-22T00:21:01;10.50;53.50
74101;DHT22;62462;52.530;21.682;2023-04-22T00:23:27;10.50;53.50
74101;DHT22;62462;52.530;21.682;2023-04-22T00:25:52;10.50;53.70
74101;DHT22;62462;52.530;21.682;2023-04-22T00:28:18;10.40;53.90
74101;DHT22;62462;52.530;21.682;2023-04-22T00:30:44;10.30;54.40
74101;DHT22;62462;52.530;21.682;2023-04-22T00:33:09;10.20;54.50
74101;DHT22;62462;52.530;21.682;2023-04-22T00:35:35;10.20;54.50
74101;DHT22;62462;52.530;21.682;2023-04-22T00:38:01;10.20;54.70
74101;DHT22;62462;52.530;21.682;2023-04-22T00:40:27;10.20;54.50
74101;DHT22;62462;52.530;21.682;2023-04-22T00:42:53;10.10;55.10
74101;DHT22;62462;52.530;21.682;2023-04-22T00:45:20;10.10;55.10
74101;DHT22;62462;52.530;21.682;2023-04-22T00:47:46;10.00;55.40
74101;DHT22;62462;52.530;21.682;2023-04-22T00:50:13;9.90;55.70
74101;DHT22;62462;52.530;21.682;2023-04-22T00:52:39;9.80;55.70
74101;DHT22;62462;52.530;21.682;2023-04-22T00:55:05;9.80;55.60
74101;DHT22;62462;52.530;21.682;2023-04-22T00:57:31;9.80;55.40
74101;DHT22;62462;52.530;21.682;2023-04-22T00:59:58;9.80;55.20
74101;DHT22;62462;52.530;21.682;2023-04-22T01:02:24;9.90;55.30
74101;DHT22;62462;52.530;21.682;2023-04-22T01:04:50;9.90;55.30
74101;DHT22;62462;52.530;21.682;2023-04-22T01:07:18;9.90;55.00
74101;DHT22;62462;52.530;21.682;2023-04-22T01:09:45;9.90;54.90
74101;DHT22;62462;52.530;21.682;2023-04-22T01:12:10;9.90;55.10
74101;DHT22;62462;52.530;21.682;2023-04-22T01:14:36;9.80;55.30
74101;DHT22;62462;52.530;21.682;2023-04-22T01:17:02;9.70;55.50
74101;DHT22;62462;52.530;21.682;2023-04-22T01:19:28;9.70;55.50
74101;DHT22;62462;52.530;21.682;2023-04-22T01:21:54;9.60;55.30
74101;DHT22;62462;52.530;21.682;2023-04-22T01:24:20;9.70;55.10
74101;DHT22;62462;52.530;21.682;2023-04-22T01:26:47;9.60;55.40
74101;DHT22;62462;52.530;21.682;2023-04-22T01:29:13;9.60;55.40
74101;DHT22;62462;52.530;21.682;2023-04-22T01:31:39;9.50;55.30
74101;DHT22;62462;52.530;21.682;2023-04-22T01:34:05;9.40;55.40
74101;DHT22;62462;52.530;21.682;2023-04-22T01:36:31;9.40;55.40
74101;DHT22;62462;52.530;21.682;2023-04-22T01:38:59;9.50;55.30
74101;DHT22;62462;52.530;21.682;2023-04-22T01:41:24;9.50;55.40
74101;DHT22;62462;52.530;21.682;2023-04-22T01:43:52;9.50;55.20
74101;DHT22;62462;52.530;21.682;2023-04-22T01:46:18;9.50;55.00
74101;DHT22;62462;52.530;21.682;2023-04-22T01:48:44;9.50;55.00
74101;DHT22;62462;52.530;21.682;2023-04-22T01:51:15;9.40;55.30
74101;DHT22;62462;52.530;21.682;2023-04-22T01:53:42;9.30;55.70
74101;DHT22;62462;52.530;21.682;2023-04-22T01:56:07;9.10;56.30
74101;DHT22;62462;52.530;21.682;2023-04-22T01:58:33;9.00;56.90
74101;DHT22;62462;52.530;21.682;2023-04-22T02:01:00;9.10;56.60
74101;DHT22;62462;52.530;21.682;2023-04-22T02:03:25;9.20;56.10
74101;DHT22;62462;52.530;21.682;2023-04-22T02:05:51;9.10;55.80
74101;DHT22;62462;52.530;21.682;2023-04-22T02:08:17;9.20;55.90
74101;DHT22;62462;52.530;21.682;2023-04-22T02:10:42;9.20;55.90
74101;DHT22;62462;52.530;21.682;2023-04-22T02:13:08;9.10;56.50
74101;DHT22;62462;52.530;21.682;2023-04-22T02:15:34;9.00;56.50
74101;DHT22;62462;52.530;21.682;2023-04-22T02:18:00;9.10;56.60
74101;DHT22;62462;52.530;21.682;2023-04-22T02:20:26;9.00;56.90
74101;DHT22;62462;52.530;21.682;2023-04-22T02:22:52;8.90;57.00
74101;DHT22;62462;52.530;21.682;2023-04-22T02:25:18;8.70;57.20
74101;DHT22;62462;52.530;21.682;2023-04-22T02:27:43;8.60;56.60
74101;DHT22;62462;52.530;21.682;2023-04-22T02:30:09;8.70;56.20
74101;DHT22;62462;52.530;21.682;2023-04-22T02:32:35;8.70;56.30
74101;DHT22;62462;52.530;21.682;2023-04-22T02:35:03;8.80;56.50
74101;DHT22;62462;52.530;21.682;2023-04-22T02:37:29;8.80;56.80
74101;DHT22;62462;52.530;21.682;2023-04-22T02:39:55;8.80;56.40
74101;DHT22;62462;52.530;21.682;2023-04-22T02:42:21;8.80;56.50
74101;DHT22;62462;52.530;21.682;2023-04-22T02:44:47;8.80;56.30
74101;DHT22;62462;52.530;21.682;2023-04-22T02:47:12;8.80;56.50
74101;DHT22;62462;52.530;21.682;2023-04-22T02:49:38;8.70;56.80
74101;DHT22;62462;52.530;21.682;2023-04-22T02:52:04;8.40;57.40
74101;DHT22;62462;52.530;21.682;2023-04-22T02:54:29;8.30;57.80
74101;DHT22;62462;52.530;21.682;2023-04-22T02:56:55;8.30;57.20
74101;DHT22;62462;52.530;21.682;2023-04-22T02:59:22;8.40;57.20
74101;DHT22;62462;52.530;21.682;2023-04-22T03:01:48;8.40;57.10
74101;DHT22;62462;52.530;21.682;2023-04-22T03:04:14;8.40;57.10
74101;DHT22;62462;52.530;21.682;2023-04-22T03:06:40;8.30;57.60
74101;DHT22;62462;52.530;21.682;2023-04-22T03:09:05;8.20;57.90
74101;DHT22;62462;52.530;21.682;2023-04-22T03:11:31;8.20;57.30
74101;DHT22;62462;52.530;21.682;2023-04-22T03:13:57;8.20;57.20
74101;DHT22;62462;52.530;21.682;2023-04-22T03:16:23;8.30;57.40
74101;DHT22;62462;52.530;21.682;2023-04-22T03:18:49;8.30;57.30
74101;DHT22;62462;52.530;21.682;2023-04-22T03:21:14;8.30;57.60
74101;DHT22;62462;52.530;21.682;2023-04-22T03:23:40;8.20;57.80
74101;DHT22;62462;52.530;21.682;2023-04-22T03:26:06;8.20;57.70
74101;DHT22;62462;52.530;21.682;2023-04-22T03:28:31;8.30;57.50
74101;DHT22;62462;52.530;21.682;2023-04-22T03:30:57;8.30;56.90
74101;DHT22;62462;52.530;21.682;2023-04-22T03:33:23;8.30;56.90
74101;DHT22;62462;52.530;21.682;2023-04-22T03:35:49;8.30;56.90
74101;DHT22;62462;52.530;21.682;2023-04-22T03:38:15;8.30;57.20
74101;DHT22;62462;52.530;21.682;2023-04-22T03:40:42;8.20;57.60
74101;DHT22;62462;52.530;21.682;2023-04-22T03:43:08;8.10;58.80
74101;DHT22;62462;52.530;21.682;2023-04-22T03:45:34;8.10;57.70
74101;DHT22;62462;52.530;21.682;2023-04-22T03:47:59;8.20;57.90
74101;DHT22;62462;52.530;21.682;2023-04-22T03:50:25;8.20;57.60
74101;DHT22;62462;52.530;21.682;2023-04-22T03:52:51;8.20;58.00
74101;DHT22;62462;52.530;21.682;2023-04-22T03:55:16;8.00;58.60
74101;DHT22;62462;52.530;21.682;2023-04-22T03:57:42;8.00;58.70
74101;DHT22;62462;52.530;21.682;2023-04-22T04:00:08;8.00;58.70
74101;DHT22;62462;52.530;21.682;2023-04-22T04:02:34;8.10;58.30
74101;DHT22;62462;52.530;21.682;2023-04-22T04:04:59;8.10;57.70
74101;DHT22;62462;52.530;21.682;2023-04-22T04:07:26;8.20;58.10
74101;DHT22;62462;52.530;21.682;2023-04-22T04:09:52;8.20;58.20
74101;DHT22;62462;52.530;21.682;2023-04-22T04:12:17;8.30;58.40
74101;DHT22;62462;52.530;21.682;2023-04-22T04:14:43;8.30;58.40
74101;DHT22;62462;52.530;21.682;2023-04-22T04:17:09;8.40;58.60
74101;DHT22;62462;52.530;21.682;2023-04-22T04:19:37;8.40;59.00
74101;DHT22;62462;52.530;21.682;2023-04-22T04:22:03;8.40;59.10
74101;DHT22;62462;52.530;21.682;2023-04-22T04:24:29;8.40;59.40
74101;DHT22;62462;52.530;21.682;2023-04-22T04:26:55;8.50;59.40
74101;DHT22;62462;52.530;21.682;2023-04-22T04:29:22;8.60;59.40
74101;DHT22;62462;52.530;21.682;2023-04-22T04:31:48;8.70;59.50
74101;DHT22;62462;52.530;21.682;2023-04-22T04:34:14;8.80;59.50
74101;DHT22;62462;52.530;21.682;2023-04-22T04:36:40;8.90;59.60
74101;DHT22;62462;52.530;21.682;2023-04-22T04:39:06;9.10;59.70
74101;DHT22;62462;52.530;21.682;2023-04-22T04:41:34;9.20;59.80
74101;DHT22;62462;52.530;21.682;2023-04-22T04:44:00;9.30;59.80
74101;DHT22;62462;52.530;21.682;2023-04-22T04:46:26;9.30;59.80
74101;DHT22;62462;52.530;21.682;2023-04-22T04:48:54;9.50;59.90
74101;DHT22;62462;52.530;21.682;2023-04-22T04:51:20;9.60;59.80
74101;DHT22;62462;52.530;21.682;2023-04-22T04:53:46;9.70;59.50
74101;DHT22;62462;52.530;21.682;2023-04-22T04:56:11;9.80;59.40
74101;DHT22;62462;52.530;21.682;2023-04-22T04:58:37;9.90;59.30
74101;DHT22;62462;52.530;21.682;2023-04-22T05:01:03;9.90;59.00
74101;DHT22;62462;52.530;21.682;2023-04-22T05:03:29;10.00;59.00
74101;DHT22;62462;52.530;21.682;2023-04-22T05:05:55;10.00;59.10
74101;DHT22;62462;52.530;21.682;2023-04-22T05:08:21;10.00;59.50
74101;DHT22;62462;52.530;21.682;2023-04-22T05:10:46;10.00;59.10
74101;DHT22;62462;52.530;21.682;2023-04-22T05:13:12;10.10;59.10
74101;DHT22;62462;52.530;21.682;2023-04-22T05:15:38;10.20;59.00
74101;DHT22;62462;52.530;21.682;2023-04-22T05:18:04;10.30;59.00
74101;DHT22;62462;52.530;21.682;2023-04-22T05:20:30;10.40;58.60
74101;DHT22;62462;52.530;21.682;2023-04-22T05:22:55;10.50;58.70
74101;DHT22;62462;52.530;21.682;2023-04-22T05:25:21;10.60;58.60
74101;DHT22;62462;52.530;21.682;2023-04-22T05:27:47;10.80;58.30
74101;DHT22;62462;52.530;21.682;2023-04-22T05:30:13;10.90;58.30
74101;DHT22;62462;52.530;21.682;2023-04-22T05:32:38;11.00;58.40
74101;DHT22;62462;52.530;21.682;2023-04-22T05:35:04;11.10;58.00
74101;DHT22;62462;52.530;21.682;2023-04-22T05:37:30;11.30;57.40
74101;DHT22;62462;52.530;21.682;2023-04-22T05:39:56;11.40;57.10
74101;DHT22;62462;52.530;21.682;2023-04-22T05:42:21;11.60;57.00
74101;DHT22;62462;52.530;21.682;2023-04-22T05:44:47;11.80;56.60
74101;DHT22;62462;52.530;21.682;2023-04-22T05:47:13;11.90;56.40
74101;DHT22;62462;52.530;21.682;2023-04-22T05:49:38;12.10;55.90
74101;DHT22;62462;52.530;21.682;2023-04-22T05:52:04;12.30;55.90
74101;DHT22;62462;52.530;21.682;2023-04-22T05:54:30;12.40;55.80
74101;DHT22;62462;52.530;21.682;2023-04-22T05:56:56;12.60;55.40
74101;DHT22;62462;52.530;21.682;2023-04-22T05:59:21;12.70;55.00
74101;DHT22;62462;52.530;21.682;2023-04-22T06:01:47;13.00;54.70
74101;DHT22;62462;52.530;21.682;2023-04-22T06:04:13;13.10;54.30
74101;DHT22;62462;52.530;21.682;2023-04-22T06:06:39;13.20;54.00
74101;DHT22;62462;52.530;21.682;2023-04-22T06:09:04;13.40;53.70
74101;DHT22;62462;52.530;21.682;2023-04-22T06:11:32;13.50;53.40
74101;DHT22;62462;52.530;21.682;2023-04-22T06:13:57;13.60;53.30
74101;DHT22;62462;52.530;21.682;2023-04-22T06:16:23;13.70;53.10
74101;DHT22;62462;52.530;21.682;2023-04-22T06:18:49;13.80;52.50
74101;DHT22;62462;52.530;21.682;2023-04-22T06:21:15;13.90;52.30
74101;DHT22;62462;52.530;21.682;2023-04-22T06:23:41;13.90;52.40
74101;DHT22;62462;52.530;21.682;2023-04-22T06:26:07;13.90;52.20
74101;DHT22;62462;52.530;21.682;2023-04-22T06:28:33;14.00;52.30
74101;DHT22;62462;52.530;21.682;2023-04-22T06:30:59;14.00;52.10
74101;DHT22;62462;52.530;21.682;2023-04-22T06:33:26;14.20;52.20
74101;DHT22;62462;52.530;21.682;2023-04-22T06:35:51;14.30;52.00
74101;DHT22;62462;52.530;21.682;2023-04-22T06:38:17;14.50;51.60
74101;DHT22;62462;52.530;21.682;2023-04-22T06:40:43;14.60;51.50
74101;DHT22;62462;52.530;21.682;2023-04-22T06:43:08;14.70;51.30
74101;DHT22;62462;52.530;21.682;2023-04-22T06:45:34;14.80;51.50
74101;DHT22;62462;52.530;21.682;2023-04-22T06:48:00;15.00;51.20
74101;DHT22;62462;52.530;21.682;2023-04-22T06:50:26;15.10;50.90
74101;DHT22;62462;52.530;21.682;2023-04-22T06:52:53;15.20;50.40
74101;DHT22;62462;52.530;21.682;2023-04-22T06:55:19;15.40;49.80
74101;DHT22;62462;52.530;21.682;2023-04-22T06:57:44;15.40;49.80
74101;DHT22;62462;52.530;21.682;2023-04-22T07:00:11;15.50;49.30
74101;DHT22;62462;52.530;21.682;2023-04-22T07:02:36;15.60;49.30
74101;DHT22;62462;52.530;21.682;2023-04-22T07:05:02;15.70;48.80
74101;DHT22;62462;52.530;21.682;2023-04-22T07:07:28;15.90;49.40
74101;DHT22;62462;52.530;21.682;2023-04-22T07:09:54;16.00;49.30
74101;DHT22;62462;52.530;21.682;2023-04-22T07:12:19;16.20;48.90
74101;DHT22;62462;52.530;21.682;2023-04-22T07:14:47;16.30;48.60
74101;DHT22;62462;52.530;21.682;2023-04-22T07:17:13;16.40;47.70
74101;DHT22;62462;52.530;21.682;2023-04-22T07:19:39;16.50;48.10
74101;DHT22;62462;52.530;21.682;2023-04-22T07:22:05;16.60;47.50
74101;DHT22;62462;52.530;21.682;2023-04-22T07:24:31;16.70;47.40
74101;DHT22;62462;52.530;21.682;2023-04-22T07:26:57;16.90;47.50
74101;DHT22;62462;52.530;21.682;2023-04-22T07:29:22;17.00;47.50
74101;DHT22;62462;52.530;21.682;2023-04-22T07:31:48;17.10;45.40
74101;DHT22;62462;52.530;21.682;2023-04-22T07:34:14;17.20;46.30
74101;DHT22;62462;52.530;21.682;2023-04-22T07:36:40;17.30;46.00
74101;DHT22;62462;52.530;21.682;2023-04-22T07:39:06;17.40;46.10
74101;DHT22;62462;52.530;21.682;2023-04-22T07:41:32;17.50;44.70
74101;DHT22;62462;52.530;21.682;2023-04-22T07:43:58;17.60;45.10
74101;DHT22;62462;52.530;21.682;2023-04-22T07:46:24;17.60;43.70
74101;DHT22;62462;52.530;21.682;2023-04-22T07:48:50;17.70;43.20
74101;DHT22;62462;52.530;21.682;2023-04-22T07:51:15;17.80;44.50
74101;DHT22;62462;52.530;21.682;2023-04-22T07:53:41;18.00;44.70
74101;DHT22;62462;52.530;21.682;2023-04-22T07:56:07;18.20;43.60
74101;DHT22;62462;52.530;21.682;2023-04-22T07:58:33;18.30;43.50
74101;DHT22;62462;52.530;21.682;2023-04-22T08:00:59;18.40;42.50
74101;DHT22;62462;52.530;21.682;2023-04-22T08:03:24;18.50;42.00
74101;DHT22;62462;52.530;21.682;2023-04-22T08:05:50;18.60;42.70
74101;DHT22;62462;52.530;21.682;2023-04-22T08:08:16;18.70;41.80
74101;DHT22;62462;52.530;21.682;2023-04-22T08:10:42;18.80;40.20
74101;DHT22;62462;52.530;21.682;2023-04-22T08:13:07;18.80;40.70
74101;DHT22;62462;52.530;21.682;2023-04-22T08:15:33;19.00;41.20
74101;DHT22;62462;52.530;21.682;2023-04-22T08:17:59;19.10;39.50
74101;DHT22;62462;52.530;21.682;2023-04-22T08:20:25;19.20;40.50
74101;DHT22;62462;52.530;21.682;2023-04-22T08:22:51;19.30;40.00
74101;DHT22;62462;52.530;21.682;2023-04-22T08:25:22;19.40;38.60
74101;DHT22;62462;52.530;21.682;2023-04-22T08:27:49;19.50;37.50
74101;DHT22;62462;52.530;21.682;2023-04-22T08:30:15;19.40;36.70
74101;DHT22;62462;52.530;21.682;2023-04-22T08:32:41;19.40;37.30
74101;DHT22;62462;52.530;21.682;2023-04-22T08:35:07;19.50;38.00
74101;DHT22;62462;52.530;21.682;2023-04-22T08:37:33;19.60;38.60
74101;DHT22;62462;52.530;21.682;2023-04-22T08:39:59;19.80;38.60
74101;DHT22;62462;52.530;21.682;2023-04-22T08:42:26;19.80;37.00
74101;DHT22;62462;52.530;21.682;2023-04-22T08:44:53;20.00;37.90
74101;DHT22;62462;52.530;21.682;2023-04-22T08:47:20;20.00;36.90
74101;DHT22;62462;52.530;21.682;2023-04-22T08:49:46;20.10;37.20
74101;DHT22;62462;52.530;21.682;2023-04-22T08:52:12;20.20;36.60
74101;DHT22;62462;52.530;21.682;2023-04-22T08:54:40;20.20;35.90
74101;DHT22;62462;52.530;21.682;2023-04-22T08:57:07;20.30;34.30
74101;DHT22;62462;52.530;21.682;2023-04-22T08:59:33;20.40;36.10
74101;DHT22;62462;52.530;21.682;2023-04-22T09:02:01;20.40;34.30
74101;DHT22;62462;52.530;21.682;2023-04-22T09:04:27;20.40;35.20
74101;DHT22;62462;52.530;21.682;2023-04-22T09:06:53;20.60;38.00
74101;DHT22;62462;52.530;21.682;2023-04-22T09:09:18;20.80;36.20
74101;DHT22;62462;52.530;21.682;2023-04-22T09:11:44;21.00;36.10
74101;DHT22;62462;52.530;21.682;2023-04-22T09:14:10;21.10;34.40
74101;DHT22;62462;52.530;21.682;2023-04-22T09:16:46;21.10;34.70
74101;DHT22;62462;52.530;21.682;2023-04-22T09:19:15;21.10;33.70
74101;DHT22;62462;52.530;21.682;2023-04-22T09:21:41;21.20;34.60
74101;DHT22;62462;52.530;21.682;2023-04-22T09:24:10;21.30;36.00
74101;DHT22;62462;52.530;21.682;2023-04-22T09:26:41;21.50;37.10
74101;DHT22;62462;52.530;21.682;2023-04-22T09:29:07;21.60;37.60
74101;DHT22;62462;52.530;21.682;2023-04-22T09:31:37;21.70;32.80
74101;DHT22;62462;52.530;21.682;2023-04-22T09:34:03;21.60;34.00
74101;DHT22;62462;52.530;21.682;2023-04-22T09:36:30;21.60;34.20
74101;DHT22;62462;52.530;21.682;2023-04-22T09:39:04;21.70;35.40
74101;DHT22;62462;52.530;21.682;2023-04-22T09:41:39;21.90;36.50
74101;DHT22;62462;52.530;21.682;2023-04-22T09:44:26;22.10;34.90
74101;DHT22;62462;52.530;21.682;2023-04-22T09:46:53;22.00;33.80
74101;DHT22;62462;52.530;21.682;2023-04-22T09:49:20;21.90;34.60
74101;DHT22;62462;52.530;21.682;2023-04-22T09:51:45;21.50;33.20
74101;DHT22;62462;52.530;21.682;2023-04-22T09:54:11;21.10;34.00
74101;DHT22;62462;52.530;21.682;2023-04-22T09:56:50;20.70;34.80
74101;DHT22;62462;52.530;21.682;2023-04-22T09:59:26;20.40;35.80
74101;DHT22;62462;52.530;21.682;2023-04-22T10:01:56;20.10;36.30
74101;DHT22;62462;52.530;21.682;2023-04-22T10:04:22;19.80;36.80
74101;DHT22;62462;52.530;21.682;2023-04-22T10:06:53;19.70;37.30
74101;DHT22;62462;52.530;21.682;2023-04-22T10:09:21;19.60;37.20
74101;DHT22;62462;52.530;21.682;2023-04-22T10:11:48;19.40;37.20
74101;DHT22;62462;52.530;21.682;2023-04-22T10:14:15;19.30;35.80
74101;DHT22;62462;52.530;21.682;2023-04-22T10:16:43;19.20;36.60
74101;DHT22;62462;52.530;21.682;2023-04-22T10:19:12;19.10;36.80
74101;DHT22;62462;52.530;21.682;2023-04-22T10:21:43;19.20;36.90
74101;DHT22;62462;52.530;21.682;2023-04-22T10:24:15;19.60;37.90
74101;DHT22;62462;52.530;21.682;2023-04-22T10:29:15;20.70;36.30
74101;DHT22;62462;52.530;21.682;2023-04-22T10:31:55;21.20;36.60
74101;DHT22;62462;52.530;21.682;2023-04-22T10:34:22;21.60;37.20
74101;DHT22;62462;52.530;21.682;2023-04-22T10:37:12;22.00;33.70
74101;DHT22;62462;52.530;21.682;2023-04-22T10:39:41;22.20;33.90
74101;DHT22;62462;52.530;21.682;2023-04-22T10:42:11;22.30;33.30
74101;DHT22;62462;52.530;21.682;2023-04-22T10:44:59;22.20;31.80
74101;DHT22;62462;52.530;21.682;2023-04-22T10:52:33;22.70;31.40
74101;DHT22;62462;52.530;21.682;2023-04-22T10:54:59;22.60;30.30
74101;DHT22;62462;52.530;21.682;2023-04-22T10:57:34;22.30;30.60
74101;DHT22;62462;52.530;21.682;2023-04-22T11:00:30;21.80;30.00
74101;DHT22;62462;52.530;21.682;2023-04-22T11:03:09;21.50;31.30
74101;DHT22;62462;52.530;21.682;2023-04-22T11:05:36;21.60;29.70
74101;DHT22;62462;52.530;21.682;2023-04-22T11:08:05;21.80;31.40
74101;DHT22;62462;52.530;21.682;2023-04-22T11:10:34;22.00;31.90
74101;DHT22;62462;52.530;21.682;2023-04-22T11:13:04;22.20;31.70
74101;DHT22;62462;52.530;21.682;2023-04-22T11:15:33;22.50;30.50
74101;DHT22;62462;52.530;21.682;2023-04-22T11:17:59;22.60;31.30
74101;DHT22;62462;52.530;21.682;2023-04-22T11:20:25;22.80;30.20
74101;DHT22;62462;52.530;21.682;2023-04-22T11:22:53;22.90;29.10
74101;DHT22;62462;52.530;21.682;2023-04-22T11:25:20;23.10;29.60
74101;DHT22;62462;52.530;21.682;2023-04-22T11:27:46;23.30;30.90
74101;DHT22;62462;52.530;21.682;2023-04-22T11:30:14;23.50;30.40
74101;DHT22;62462;52.530;21.682;2023-04-22T11:32:45;23.70;29.80
74101;DHT22;62462;52.530;21.682;2023-04-22T11:38:08;23.80;27.30
74101;DHT22;62462;52.530;21.682;2023-04-22T11:40:36;23.60;28.10
74101;DHT22;62462;52.530;21.682;2023-04-22T11:43:03;23.60;28.50
74101;DHT22;62462;52.530;21.682;2023-04-22T11:45:31;23.70;28.50
74101;DHT22;62462;52.530;21.682;2023-04-22T11:47:57;23.60;27.60
74101;DHT22;62462;52.530;21.682;2023-04-22T11:50:27;23.60;28.50
74101;DHT22;62462;52.530;21.682;2023-04-22T11:52:56;23.80;29.10
74101;DHT22;62462;52.530;21.682;2023-04-22T11:58:12;24.00;27.60
74101;DHT22;62462;52.530;21.682;2023-04-22T12:03:16;23.80;26.40
74101;DHT22;62462;52.530;21.682;2023-04-22T12:05:44;23.80;27.60
74101;DHT22;62462;52.530;21.682;2023-04-22T12:08:18;23.80;28.70
74101;DHT22;62462;52.530;21.682;2023-04-22T12:10:47;24.00;27.70
74101;DHT22;62462;52.530;21.682;2023-04-22T12:13:25;24.00;28.50
74101;DHT22;62462;52.530;21.682;2023-04-22T12:15:57;24.10;27.70
74101;DHT22;62462;52.530;21.682;2023-04-22T12:18:33;23.90;26.50
74101;DHT22;62462;52.530;21.682;2023-04-22T12:21:10;23.80;27.60
74101;DHT22;62462;52.530;21.682;2023-04-22T12:23:43;24.00;27.20
74101;DHT22;62462;52.530;21.682;2023-04-22T12:26:10;24.20;26.80
74101;DHT22;62462;52.530;21.682;2023-04-22T12:28:39;24.40;28.90
74101;DHT22;62462;52.530;21.682;2023-04-22T12:31:06;24.60;27.80
74101;DHT22;62462;52.530;21.682;2023-04-22T12:33:32;24.70;27.10
74101;DHT22;62462;52.530;21.682;2023-04-22T12:35:58;24.80;27.40
74101;DHT22;62462;52.530;21.682;2023-04-22T12:38:24;24.70;26.30
74101;DHT22;62462;52.530;21.682;2023-04-22T12:40:49;24.50;25.90
74101;DHT22;62462;52.530;21.682;2023-04-22T12:43:16;24.40;27.20
74101;DHT22;62462;52.530;21.682;2023-04-22T12:45:42;24.50;27.50
74101;DHT22;62462;52.530;21.682;2023-04-22T12:48:08;24.70;27.80
74101;DHT22;62462;52.530;21.682;2023-04-22T12:50:33;24.70;26.80
74101;DHT22;62462;52.530;21.682;2023-04-22T12:52:59;24.80;27.00
74101;DHT22;62462;52.530;21.682;2023-04-22T12:55:25;25.10;27.40
74101;DHT22;62462;52.530;21.682;2023-04-22T12:57:51;25.50;27.10
74101;DHT22;62462;52.530;21.682;2023-04-22T13:00:18;25.70;27.30
74101;DHT22;62462;52.530;21.682;2023-04-22T13:02:47;25.90;27.90
74101;DHT22;62462;52.530;21.682;2023-04-22T13:05:13;26.10;27.60
74101;DHT22;62462;52.530;21.682;2023-04-22T13:07:39;26.20;27.30
74101;DHT22;62462;52.530;21.682;2023-04-22T13:10:11;26.20;26.50
74101;DHT22;62462;52.530;21.682;2023-04-22T13:12:37;26.10;26.50
74101;DHT22;62462;52.530;21.682;2023-04-22T13:15:03;26.00;24.70
74101;DHT22;62462;52.530;21.682;2023-04-22T13:17:29;25.70;25.20
74101;DHT22;62462;52.530;21.682;2023-04-22T13:19:55;25.10;25.80
74101;DHT22;62462;52.530;21.682;2023-04-22T13:22:21;24.40;26.50
74101;DHT22;62462;52.530;21.682;2023-04-22T13:24:47;23.90;27.50
74101;DHT22;62462;52.530;21.682;2023-04-22T13:27:13;23.70;28.00
74101;DHT22;62462;52.530;21.682;2023-04-22T13:29:39;23.50;27.90
74101;DHT22;62462;52.530;21.682;2023-04-22T13:32:05;23.40;27.60
74101;DHT22;62462;52.530;21.682;2023-04-22T13:34:31;23.00;27.90
74101;DHT22;62462;52.530;21.682;2023-04-22T13:36:57;22.80;28.70
74101;DHT22;62462;52.530;21.682;2023-04-22T13:39:23;22.70;29.10
74101;DHT22;62462;52.530;21.682;2023-04-22T13:41:49;22.60;29.30
74101;DHT22;62462;52.530;21.682;2023-04-22T13:44:15;22.50;29.40
74101;DHT22;62462;52.530;21.682;2023-04-22T13:46:41;22.60;29.50
74101;DHT22;62462;52.530;21.682;2023-04-22T13:49:07;22.60;29.40
74101;DHT22;62462;52.530;21.682;2023-04-22T13:51:33;22.50;29.60
74101;DHT22;62462;52.530;21.682;2023-04-22T13:54:00;22.60;29.70
74101;DHT22;62462;52.530;21.682;2023-04-22T13:56:26;22.70;29.70
74101;DHT22;62462;52.530;21.682;2023-04-22T13:58:53;22.90;29.50
74101;DHT22;62462;52.530;21.682;2023-04-22T14:01:18;22.90;28.70
74101;DHT22;62462;52.530;21.682;2023-04-22T14:03:48;22.80;29.10
74101;DHT22;62462;52.530;21.682;2023-04-22T14:06:14;22.80;30.20
74101;DHT22;62462;52.530;21.682;2023-04-22T14:08:40;23.20;29.70
74101;DHT22;62462;52.530;21.682;2023-04-22T14:11:07;23.60;28.80
74101;DHT22;62462;52.530;21.682;2023-04-22T14:13:32;24.00;28.30
74101;DHT22;62462;52.530;21.682;2023-04-22T14:15:58;24.20;27.10
74101;DHT22;62462;52.530;21.682;2023-04-22T14:18:24;24.00;26.90
74101;DHT22;62462;52.530;21.682;2023-04-22T14:20:51;23.70;27.80
74101;DHT22;62462;52.530;21.682;2023-04-22T14:23:17;23.50;27.70
74101;DHT22;62462;52.530;21.682;2023-04-22T14:25:45;23.30;27.90
74101;DHT22;62462;52.530;21.682;2023-04-22T14:28:14;23.20;27.70
74101;DHT22;62462;52.530;21.682;2023-04-22T14:30:41;23.10;28.30
74101;DHT22;62462;52.530;21.682;2023-04-22T14:33:07;23.00;28.40
74101;DHT22;62462;52.530;21.682;2023-04-22T14:35:34;22.90;28.40
74101;DHT22;62462;52.530;21.682;2023-04-22T14:38:01;22.80;28.80
74101;DHT22;62462;52.530;21.682;2023-04-22T14:40:27;22.80;29.10
74101;DHT22;62462;52.530;21.682;2023-04-22T14:42:55;22.80;29.40
74101;DHT22;62462;52.530;21.682;2023-04-22T14:45:22;22.80;29.60
74101;DHT22;62462;52.530;21.682;2023-04-22T14:47:48;22.80;29.60
74101;DHT22;62462;52.530;21.682;2023-04-22T14:50:14;22.90;29.50
74101;DHT22;62462;52.530;21.682;2023-04-22T14:52:40;22.90;29.60
74101;DHT22;62462;52.530;21.682;2023-04-22T14:55:06;23.10;29.90
74101;DHT22;62462;52.530;21.682;2023-04-22T14:57:32;23.50;29.30
74101;DHT22;62462;52.530;21.682;2023-04-22T14:59:57;23.80;28.30
74101;DHT22;62462;52.530;21.682;2023-04-22T15:02:23;24.00;28.10
74101;DHT22;62462;52.530;21.682;2023-04-22T15:04:49;24.00;27.80
74101;DHT22;62462;52.530;21.682;2023-04-22T15:07:14;24.00;27.90
74101;DHT22;62462;52.530;21.682;2023-04-22T15:09:40;24.10;28.20
74101;DHT22;62462;52.530;21.682;2023-04-22T15:12:06;24.20;27.50
74101;DHT22;62462;52.530;21.682;2023-04-22T15:14:33;24.40;27.80
74101;DHT22;62462;52.530;21.682;2023-04-22T15:17:03;24.50;27.60
74101;DHT22;62462;52.530;21.682;2023-04-22T15:19:29;24.60;27.70
74101;DHT22;62462;52.530;21.682;2023-04-22T15:21:55;24.70;27.80
74101;DHT22;62462;52.530;21.682;2023-04-22T15:24:21;24.80;26.70
74101;DHT22;62462;52.530;21.682;2023-04-22T15:26:47;24.80;26.60
74101;DHT22;62462;52.530;21.682;2023-04-22T15:29:13;24.70;26.50
74101;DHT22;62462;52.530;21.682;2023-04-22T15:31:39;24.60;26.70
74101;DHT22;62462;52.530;21.682;2023-04-22T15:34:05;24.70;27.20